Meteo Giornale » Osservazioni meteo Iran » Esfahan
ore: 22:30 - Osservazioni Meteo Esfahan
Lat. 32° 28' N Lon. 51° 43' E Alt. 1590 metri s.l.m.
26 °C
Sereno
Temp. 24 Ore
14 °C
39 °C
Ovest/Nord-Ovest
13 Km/h
Dew point -4 °C
Umidità 13 %
Visibilità 10 Km
Il sole sorge alle ore 05:37
Il sole tramonta alle ore 18:29
| Data e Ora | Cielo e Fenomeni | T °C | DP °C | Um. % | Pres. hPa | Vis. km | Vento km/h | |
|---|---|---|---|---|---|---|---|---|
| Oggi h: 22:30 | Sereno | 26 | -4 | 13 | 1016 | 10 | O/NO 13 | |
| Oggi h: 21:30 | Sereno | 28 | -3 | 12 | 1016 | 10 | O/NO 14.8 | |
| Oggi h: 21:00 | Sereno | 29 | -3 | 12 | 1016 | 10 | O 14.8 | |
| Oggi h: 20:30 | Sereno | 30 | -3 | 11 | 1016 | 10 | O 14.8 | |
| Oggi h: 20:00 | Poco Nuvoloso | 31 | -3 | 10 | 1015 | 10 | O 16.7 | |
| Oggi h: 19:30 | Nuvoloso | 30 | -1 | 13 | 1015 | 10 | N 5.5 | |
| Oggi h: 19:00 | Nuvoloso | 33 | -2 | 10 | 1015 | 10 | N 3.7 | |
| Oggi h: 18:30 | Nuvoloso | 32 | -2 | 11 | 1015 | 10 | O 9.3 | |
| Oggi h: 18:00 | Poco Nuvoloso | 35 | -3 | 8 | 1015 | 10 | O/SO 9.3 | |
| Oggi h: 17:30 | Poco Nuvoloso | 36 | -3 | 8 | 1015 | 10 | N 5.5 | |
| Oggi h: 17:00 | Poco Nuvoloso | 37 | -3 | 7 | 1015 | 10 | O 13 | |
| Oggi h: 16:30 | Poco Nuvoloso | 37 | -2 | 8 | 1015 | 10 | S 16.7 | |
| Oggi h: 16:00 | Poco Nuvoloso | 38 | -3 | 7 | 1015 | 10 | SO 13 | |
| Oggi h: 15:30 | Poco Nuvoloso | 38 | -3 | 7 | 1015 | 10 | O/SO 9.3 | |
| Oggi h: 15:00 | Sereno | 39 | -4 | 6 | 1016 | 10 | N 5.5 | |
| Oggi h: 14:30 | Sereno | 38 | -4 | 6 | 1015 | 10 | O 11.1 | |
| Oggi h: 14:00 | Sereno | 38 | -4 | 6 | 1017 | 10 | S 9.3 | |
| Oggi h: 13:30 | Sereno | 37 | -4 | 7 | 1017 | 10 | S/SO 9.3 | |
| Oggi h: 13:00 | Sereno | 37 | -5 | 6 | 1018 | 10 | S 11.1 | |
| Oggi h: 12:30 | Sereno | 37 | -5 | 6 | 1018 | 10 | S/SO 13 | |
| Oggi h: 12:00 | Sereno | 36 | -5 | 7 | 1018 | 10 | N 7.4 | |
| Oggi h: 11:30 | Sereno | 36 | -5 | 7 | 1019 | 10 | N 5.5 | |
| Oggi h: 11:00 | Sereno | 34 | -5 | 7 | 1019 | 10 | S 7.4 | |
| Oggi h: 10:30 | Sereno | 33 | -4 | 9 | 1020 | 10 | S/SE 9.3 | |
| Oggi h: 10:00 | Sereno | 32 | -3 | 10 | 1020 | 10 | N 5.5 | |
| Oggi h: 09:30 | Sereno | 32 | -3 | 10 | 1020 | 10 | N 3.7 | |
| Oggi h: 09:00 | Sereno | 29 | -3 | 12 | 1020 | 10 | N 5.5 | |
| Oggi h: 08:30 | Sereno | 26 | -2 | 15 | 1020 | 10 | N/NO 9.3 | |
| Oggi h: 08:00 | Foschia | 25 | -2 | 16 | 1020 | 5 | O/NO 7.4 | |
| Oggi h: 07:30 | Foschia | 22 | -3 | 18 | 1020 | 5 | N 3.7 | |
| Oggi h: 07:00 | Sereno | 19 | -4 | 20 | 1020 | 7 | N 3.7 | |
| Oggi h: 06:30 | Sereno | 18 | -4 | 22 | 1020 | 10 | N 0 | |
| Oggi h: 06:00 | Sereno | 15 | -6 | 22 | 1020 | 10 | N 1.8 | |
| Oggi h: 05:30 | Sereno | 16 | -5 | 23 | 1019 | 10 | N 3.7 | |
| Oggi h: 04:30 | Sereno | 14 | -8 | 20 | 1019 | 10 | O/SO 7.4 | |
| Oggi h: 03:30 | Sereno | 18 | -7 | 17 | 1019 | 10 | N 3.7 | |
| Oggi h: 02:30 | Sereno | 18 | -7 | 17 | 1019 | 10 | NE 7.4 | |
| Oggi h: 01:30 | Sereno | 24 | -5 | 14 | 1019 | 10 | N 5.5 | |
| Oggi h: 00:30 | Sereno | 25 | -6 | 12 | 1019 | 10 | S 9.3 | |
| Ieri h: 23:30 | Sereno | 25 | -5 | 13 | 1019 | 10 | S 9.3 | |



